createdAt,value
2023-02-19T00:01:21.098Z,3.17
2023-02-19T00:03:49.710Z,3.00
2023-02-19T00:06:17.407Z,2.60
2023-02-19T00:08:45.406Z,3.57
2023-02-19T00:11:13.888Z,2.73
2023-02-19T00:13:43.559Z,2.80
2023-02-19T00:16:12.107Z,2.90
2023-02-19T00:18:39.824Z,2.97
2023-02-19T00:21:07.856Z,2.87
2023-02-19T00:23:35.673Z,2.97
2023-02-19T00:26:16.211Z,2.40
2023-02-19T00:28:48.293Z,2.87
2023-02-19T00:31:17.574Z,2.40
2023-02-19T00:33:45.495Z,2.57
2023-02-19T00:36:13.641Z,3.30
2023-02-19T00:38:42.047Z,2.87
2023-02-19T00:41:19.912Z,3.37
2023-02-19T00:43:50.968Z,3.33
2023-02-19T00:46:19.533Z,2.77
2023-02-19T00:48:47.765Z,3.10
2023-02-19T00:51:15.948Z,3.57
2023-02-19T00:53:43.678Z,3.17
2023-02-19T00:56:11.403Z,3.00
2023-02-19T00:58:39.267Z,3.43
2023-02-19T01:01:08.951Z,3.43
2023-02-19T01:03:37.580Z,3.80
2023-02-19T01:06:06.342Z,3.20
2023-02-19T01:08:34.365Z,3.50
2023-02-19T01:11:02.935Z,3.63
2023-02-19T01:13:31.116Z,3.03
2023-02-19T01:16:03.378Z,2.83
2023-02-19T01:18:32.981Z,2.77
2023-02-19T01:21:01.062Z,3.57
2023-02-19T01:23:28.998Z,3.10
2023-02-19T01:25:56.722Z,4.00
2023-02-19T01:28:24.415Z,3.30
2023-02-19T01:30:52.433Z,3.43
2023-02-19T01:33:20.132Z,3.20
2023-02-19T01:35:49.128Z,3.77
2023-02-19T01:38:16.854Z,3.23
2023-02-19T01:40:44.977Z,3.30
2023-02-19T01:43:15.856Z,3.87
2023-02-19T01:45:44.409Z,3.47
2023-02-19T01:48:14.107Z,3.20
2023-02-19T01:50:45.055Z,3.23
2023-02-19T01:53:15.983Z,3.00
2023-02-19T01:55:45.584Z,3.07
2023-02-19T01:58:15.494Z,2.47
2023-02-19T02:00:43.176Z,3.17
2023-02-19T02:03:11.714Z,3.30
2023-02-19T02:05:45.177Z,3.07
2023-02-19T02:08:24.599Z,3.00
2023-02-19T02:10:52.977Z,2.90
2023-02-19T02:13:20.848Z,3.33
2023-02-19T02:15:52.732Z,3.13
2023-02-19T02:18:27.171Z,3.30
2023-02-19T02:21:04.454Z,3.30
2023-02-19T02:23:41.285Z,3.13
2023-02-19T02:26:12.495Z,3.73
2023-02-19T02:28:52.033Z,4.83
2023-02-19T02:31:23.851Z,3.67
2023-02-19T02:33:55.164Z,3.03
2023-02-19T02:36:24.682Z,3.70
2023-02-19T02:38:54.099Z,3.20
2023-02-19T02:41:23.426Z,3.20
2023-02-19T02:43:51.171Z,3.00
2023-02-19T02:46:20.950Z,2.83
2023-02-19T02:48:54.015Z,3.10
2023-02-19T02:51:24.423Z,3.50
2023-02-19T02:54:15.252Z,3.33
2023-02-19T02:56:43.934Z,3.07
2023-02-19T02:59:13.571Z,3.00
2023-02-19T03:01:54.197Z,3.97
2023-02-19T03:04:28.204Z,3.20
2023-02-19T03:06:56.681Z,3.23
2023-02-19T03:09:30.121Z,3.53
2023-02-19T03:12:10.425Z,2.87
2023-02-19T03:14:51.532Z,3.43
2023-02-19T03:17:31.049Z,3.27
2023-02-19T03:20:04.486Z,3.73
2023-02-19T03:22:35.717Z,3.03
2023-02-19T03:25:16.159Z,3.03
2023-02-19T03:27:44.641Z,3.20
2023-02-19T03:30:17.321Z,3.47
2023-02-19T03:32:46.632Z,3.23
2023-02-19T03:35:18.134Z,2.93
2023-02-19T03:37:47.886Z,3.17
2023-02-19T03:40:17.400Z,3.40
2023-02-19T03:42:47.131Z,3.47
2023-02-19T03:45:25.454Z,3.23
2023-02-19T03:47:56.097Z,3.33
2023-02-19T03:50:28.677Z,2.73
2023-02-19T03:53:02.926Z,2.80
2023-02-19T03:55:33.734Z,3.10
2023-02-19T03:58:05.728Z,2.57
2023-02-19T04:00:35.817Z,2.90
2023-02-19T04:03:06.715Z,3.00
2023-02-19T04:05:38.473Z,3.20
2023-02-19T04:08:09.084Z,2.97
2023-02-19T04:10:42.710Z,2.60
2023-02-19T04:13:12.654Z,2.50
2023-02-19T04:15:41.471Z,2.70
2023-02-19T04:18:12.265Z,2.87
2023-02-19T04:20:42.799Z,2.50
2023-02-19T04:23:10.527Z,3.70
2023-02-19T04:25:39.355Z,2.87
2023-02-19T04:28:08.559Z,3.10
2023-02-19T04:30:36.480Z,3.00
2023-02-19T04:33:04.341Z,3.20
2023-02-19T04:35:32.346Z,3.40
2023-02-19T04:38:01.470Z,2.80
2023-02-19T04:40:29.654Z,3.07
2023-02-19T04:42:57.466Z,3.87
2023-02-19T04:45:25.131Z,3.10
2023-02-19T04:47:52.803Z,2.90
2023-02-19T04:50:20.523Z,3.33
2023-02-19T04:52:48.233Z,3.03
2023-02-19T04:55:18.288Z,3.37
2023-02-19T04:57:45.955Z,3.10
2023-02-19T05:00:13.877Z,3.50
2023-02-19T05:02:41.602Z,2.90
2023-02-19T05:05:09.273Z,4.70
2023-02-19T05:07:36.947Z,4.07
2023-02-19T05:10:04.751Z,3.47
2023-02-19T05:12:33.964Z,3.67
2023-02-19T05:15:01.614Z,3.40
2023-02-19T05:17:29.413Z,3.13
2023-02-19T05:19:57.193Z,4.47
2023-02-19T05:22:24.846Z,4.20
2023-02-19T05:24:52.492Z,3.30
2023-02-19T05:27:20.120Z,3.03
2023-02-19T05:29:49.134Z,3.10
2023-02-19T05:32:16.885Z,3.07
2023-02-19T05:34:44.521Z,3.63
2023-02-19T05:37:12.173Z,3.23
2023-02-19T05:39:39.831Z,2.40
2023-02-19T05:42:07.577Z,2.23
2023-02-19T05:44:35.274Z,2.37
2023-02-19T05:47:04.571Z,3.70
2023-02-19T05:49:32.442Z,3.57
2023-02-19T05:52:00.329Z,3.53
2023-02-19T05:54:29.574Z,3.43
2023-02-19T05:56:57.704Z,3.07
2023-02-19T05:59:26.642Z,2.87
2023-02-19T06:01:55.157Z,3.33
2023-02-19T06:04:24.153Z,2.77
2023-02-19T06:06:51.871Z,3.20
2023-02-19T06:09:19.508Z,3.23
2023-02-19T06:11:47.212Z,3.50
2023-02-19T06:14:14.885Z,2.83
2023-02-19T06:16:42.569Z,3.10
2023-02-19T06:19:10.267Z,3.13
2023-02-19T06:21:39.192Z,3.07
2023-02-19T06:24:07.556Z,3.30
2023-02-19T06:26:35.654Z,3.17
2023-02-19T06:29:03.641Z,3.10
2023-02-19T06:31:31.655Z,2.67
2023-02-19T06:33:59.506Z,3.30
2023-02-19T06:36:27.183Z,3.17
2023-02-19T06:39:00.621Z,2.70
2023-02-19T06:41:28.437Z,3.00
2023-02-19T06:43:57.776Z,3.20
2023-02-19T06:46:25.750Z,2.97
2023-02-19T06:48:53.432Z,2.93
2023-02-19T06:51:23.772Z,3.37
2023-02-19T06:53:51.493Z,2.90
2023-02-19T06:56:25.622Z,3.17
2023-02-19T06:58:53.316Z,3.47
2023-02-19T07:01:21.015Z,3.73
2023-02-19T07:03:48.894Z,3.33
2023-02-19T07:06:16.669Z,4.13
2023-02-19T07:08:44.352Z,3.57
2023-02-19T07:11:12.333Z,4.23
2023-02-19T07:13:41.474Z,4.37
2023-02-19T07:16:11.023Z,3.63
2023-02-19T07:18:39.650Z,3.40
2023-02-19T07:21:08.827Z,4.17
2023-02-19T07:23:36.751Z,4.40
2023-02-19T07:26:04.961Z,3.57
2023-02-19T07:28:32.743Z,4.10
2023-02-19T07:31:02.846Z,3.80
2023-02-19T07:33:30.771Z,3.80
2023-02-19T07:35:58.680Z,4.33
2023-02-19T07:38:27.114Z,3.60
2023-02-19T07:40:55.283Z,3.70
2023-02-19T07:43:23.806Z,3.70
2023-02-19T07:45:51.870Z,3.27
2023-02-19T07:48:21.128Z,3.43
2023-02-19T07:50:51.885Z,3.10
2023-02-19T07:53:19.554Z,3.33
2023-02-19T07:55:47.374Z,3.40
2023-02-19T07:58:15.069Z,3.40
2023-02-19T08:00:42.869Z,3.73
2023-02-19T08:03:09.636Z,3.67
2023-02-19T08:05:40.596Z,3.07
2023-02-19T08:08:08.899Z,3.50
2023-02-19T08:10:47.683Z,3.80
2023-02-19T08:13:23.567Z,3.57
2023-02-19T08:15:52.627Z,3.50
2023-02-19T08:18:21.251Z,3.50
2023-02-19T08:20:50.151Z,3.40
2023-02-19T08:23:20.601Z,3.60
2023-02-19T08:25:49.171Z,3.67
2023-02-19T08:28:17.264Z,3.37
2023-02-19T08:30:46.289Z,3.80
2023-02-19T08:33:14.906Z,3.83
2023-02-19T08:35:42.890Z,4.37
2023-02-19T08:38:13.303Z,4.10
2023-02-19T08:40:41.296Z,3.53
2023-02-19T08:43:10.099Z,3.93
2023-02-19T08:45:38.320Z,3.10
2023-02-19T08:48:06.063Z,3.77
2023-02-19T08:50:34.091Z,3.30
2023-02-19T08:53:01.849Z,3.37
2023-02-19T08:55:31.193Z,3.37
2023-02-19T08:57:59.410Z,3.00
2023-02-19T09:00:27.317Z,2.30
2023-02-19T09:02:54.973Z,2.47
2023-02-19T09:05:22.681Z,2.70
2023-02-19T09:07:50.299Z,2.43
2023-02-19T09:10:18.079Z,2.20
2023-02-19T09:12:46.997Z,2.37
2023-02-19T09:15:14.690Z,2.30
2023-02-19T09:17:42.418Z,2.43
2023-02-19T09:20:10.654Z,2.80
2023-02-19T09:22:38.402Z,2.90
2023-02-19T09:25:06.386Z,3.03
2023-02-19T09:27:34.277Z,2.97
2023-02-19T09:30:03.278Z,3.00
2023-02-19T09:32:31.840Z,2.80
2023-02-19T09:34:59.709Z,2.85
2023-02-19T09:37:28.416Z,3.60
2023-02-19T09:39:56.454Z,3.20
2023-02-19T09:42:25.519Z,2.70
2023-02-19T09:44:54.335Z,3.80
2023-02-19T09:47:24.088Z,3.30
2023-02-19T09:49:53.734Z,3.28
2023-02-19T09:52:26.591Z,3.42
2023-02-19T09:54:57.704Z,2.92
2023-02-19T09:57:26.977Z,2.65
2023-02-19T10:00:00.386Z,3.03
2023-02-19T10:02:31.286Z,3.33
2023-02-19T10:04:59.951Z,3.60
2023-02-19T10:07:34.047Z,3.13
2023-02-19T10:10:04.214Z,2.60
2023-02-19T10:12:34.819Z,2.90
2023-02-19T10:15:06.269Z,2.75
2023-02-19T10:17:35.648Z,3.13
2023-02-19T10:20:04.993Z,3.35
2023-02-19T10:22:33.363Z,3.70
2023-02-19T10:25:01.360Z,3.38
2023-02-19T10:27:30.640Z,3.17
2023-02-19T10:29:58.899Z,3.15
2023-02-19T10:32:27.550Z,3.03
2023-02-19T10:35:04.170Z,3.35
2023-02-19T10:37:33.257Z,3.28
2023-02-19T10:40:01.892Z,3.58
2023-02-19T10:42:29.800Z,3.35
2023-02-19T10:45:01.786Z,4.57
2023-02-19T10:47:30.880Z,3.08
2023-02-19T10:49:59.418Z,3.05
2023-02-19T10:52:28.716Z,3.20
2023-02-19T10:54:58.701Z,3.60
2023-02-19T10:57:32.844Z,3.00
2023-02-19T11:00:02.371Z,3.33
2023-02-19T11:02:31.013Z,2.80
2023-02-19T11:05:08.084Z,3.08
2023-02-19T11:07:36.920Z,3.60
2023-02-19T11:10:07.155Z,3.05
2023-02-19T11:12:35.568Z,2.90
2023-02-19T11:15:14.123Z,3.15
2023-02-19T11:17:41.916Z,2.40
2023-02-19T11:20:15.525Z,2.22
2023-02-19T11:22:46.846Z,3.00
2023-02-19T11:25:21.676Z,3.13
2023-02-19T11:27:57.760Z,2.42
2023-02-19T11:30:35.814Z,2.22
2023-02-19T11:33:19.916Z,2.20
2023-02-19T11:35:48.142Z,2.65
2023-02-19T11:38:17.007Z,2.20
2023-02-19T11:40:52.300Z,2.08
2023-02-19T11:43:25.425Z,1.85
2023-02-19T11:45:56.899Z,1.67
2023-02-19T11:48:39.446Z,2.00
2023-02-19T11:51:16.882Z,1.75
2023-02-19T11:53:49.682Z,1.80
2023-02-19T11:56:19.935Z,2.00
2023-02-19T11:58:52.416Z,1.75
2023-02-19T12:01:24.106Z,2.00
2023-02-19T12:03:58.934Z,2.17
2023-02-19T12:06:31.953Z,2.00
2023-02-19T12:09:10.363Z,2.30
2023-02-19T12:11:53.569Z,1.73
2023-02-19T12:14:36.187Z,1.80
2023-02-19T12:17:07.230Z,1.80
2023-02-19T12:19:42.314Z,1.55
2023-02-19T12:22:21.223Z,1.60
2023-02-19T12:24:56.871Z,1.80
2023-02-19T12:27:38.324Z,2.00
2023-02-19T12:30:20.457Z,1.75
2023-02-19T12:32:55.223Z,2.22
2023-02-19T12:35:27.246Z,2.72
2023-02-19T12:38:01.600Z,2.13
2023-02-19T12:40:35.670Z,2.22
2023-02-19T12:43:10.682Z,1.83
2023-02-19T12:45:40.396Z,1.77
2023-02-19T12:48:11.404Z,1.85
2023-02-19T12:50:40.629Z,2.17
2023-02-19T12:53:13.825Z,2.53
2023-02-19T12:55:42.911Z,2.00
2023-02-19T12:58:14.510Z,1.50
2023-02-19T13:00:43.620Z,2.00
2023-02-19T13:03:13.677Z,1.60
2023-02-19T13:05:46.125Z,1.50
2023-02-19T13:08:16.985Z,1.80
2023-02-19T13:10:46.063Z,1.90
2023-02-19T13:13:16.671Z,1.45
2023-02-19T13:15:46.252Z,1.63
2023-02-19T13:18:15.858Z,1.50
2023-02-19T13:20:44.137Z,1.38
2023-02-19T13:23:24.425Z,1.40
2023-02-19T13:26:02.028Z,1.58
2023-02-19T13:28:40.863Z,1.60
2023-02-19T13:31:15.242Z,1.45
2023-02-19T13:33:47.747Z,1.65
2023-02-19T13:36:17.398Z,1.23
2023-02-19T13:38:46.377Z,1.67
2023-02-19T13:41:19.837Z,1.45
2023-02-19T13:43:54.735Z,1.48
2023-02-19T13:46:22.625Z,1.80
2023-02-19T13:49:10.273Z,1.42
2023-02-19T13:51:40.019Z,1.70
2023-02-19T13:54:21.473Z,2.60
2023-02-19T13:56:49.512Z,1.80
2023-02-19T13:59:34.464Z,1.67
2023-02-19T14:02:17.737Z,1.60
2023-02-19T14:04:51.467Z,1.63
2023-02-19T14:07:35.373Z,1.58
2023-02-19T14:10:03.341Z,2.28
2023-02-19T14:12:33.436Z,1.55
2023-02-19T14:15:15.881Z,1.75
2023-02-19T14:17:45.784Z,1.50
2023-02-19T14:20:28.286Z,1.17
2023-02-19T14:23:03.412Z,1.35
2023-02-19T14:25:35.768Z,1.30
2023-02-19T14:28:04.748Z,1.35
2023-02-19T14:30:33.373Z,1.33
2023-02-19T14:33:11.622Z,1.17
2023-02-19T14:35:41.570Z,1.23
2023-02-19T14:38:15.273Z,1.30
2023-02-19T14:40:43.232Z,1.30
2023-02-19T14:43:13.382Z,1.00
2023-02-19T14:45:43.625Z,1.23
2023-02-19T14:48:18.311Z,1.02
2023-02-19T14:50:48.846Z,1.10
2023-02-19T14:53:17.075Z,1.13
2023-02-19T14:55:47.396Z,1.27
2023-02-19T14:58:17.240Z,1.33
2023-02-19T15:00:44.934Z,1.42
2023-02-19T15:03:27.905Z,1.15
2023-02-19T15:05:57.388Z,1.30
2023-02-19T15:08:34.292Z,1.15
2023-02-19T15:11:03.945Z,1.33
2023-02-19T15:13:32.286Z,1.23
2023-02-19T15:16:00.428Z,1.23
2023-02-19T15:18:35.576Z,1.42
2023-02-19T15:21:04.629Z,1.30
2023-02-19T15:23:34.529Z,1.50
2023-02-19T15:26:02.483Z,1.45
2023-02-19T15:28:32.555Z,1.20
2023-02-19T15:31:11.767Z,1.58
2023-02-19T15:33:41.258Z,1.33
2023-02-19T15:36:12.552Z,1.30
2023-02-19T15:38:40.210Z,1.15
2023-02-19T15:41:08.305Z,1.45
2023-02-19T15:43:39.694Z,1.27
2023-02-19T15:46:08.817Z,1.70
2023-02-19T15:48:41.107Z,1.40
2023-02-19T15:51:15.145Z,1.70
2023-02-19T15:53:46.008Z,1.50
2023-02-19T15:56:18.908Z,1.50
2023-02-19T15:58:49.449Z,1.23
2023-02-19T16:01:20.073Z,1.48
2023-02-19T16:03:48.115Z,1.45
2023-02-19T16:06:18.541Z,1.38
2023-02-19T16:08:47.367Z,1.63
2023-02-19T16:11:27.496Z,1.20
2023-02-19T16:14:15.118Z,1.45
2023-02-19T16:16:44.326Z,1.92
2023-02-19T16:19:12.131Z,1.80
2023-02-19T16:21:44.435Z,1.30
2023-02-19T16:24:15.029Z,1.25
2023-02-19T16:26:43.398Z,1.83
2023-02-19T16:29:18.665Z,1.60
2023-02-19T16:31:49.425Z,1.52
2023-02-19T16:34:18.544Z,1.30
2023-02-19T16:36:49.253Z,1.30
2023-02-19T16:39:18.425Z,1.60
2023-02-19T16:42:09.444Z,2.70
2023-02-19T16:44:37.519Z,1.42
2023-02-19T16:47:06.413Z,1.20
2023-02-19T16:49:34.424Z,1.15
2023-02-19T16:52:05.544Z,1.13
2023-02-19T16:54:33.790Z,1.23
2023-02-19T16:57:01.571Z,1.38
2023-02-19T16:59:29.257Z,1.23
2023-02-19T17:01:57.115Z,1.23
2023-02-19T17:04:25.941Z,1.02
2023-02-19T17:06:53.589Z,1.17
2023-02-19T17:09:22.509Z,1.20
2023-02-19T17:11:50.221Z,1.27
2023-02-19T17:14:17.942Z,1.40
2023-02-19T17:16:45.722Z,1.33
2023-02-19T17:19:14.713Z,1.52
2023-02-19T17:21:42.482Z,1.40
2023-02-19T17:24:10.183Z,1.20
2023-02-19T17:26:39.931Z,1.20
2023-02-19T17:29:10.165Z,1.55
2023-02-19T17:31:37.931Z,1.42
2023-02-19T17:34:05.794Z,1.23
2023-02-19T17:36:33.712Z,1.63
2023-02-19T17:39:02.485Z,1.40
2023-02-19T17:41:30.887Z,1.17
2023-02-19T17:44:00.104Z,1.52
2023-02-19T17:46:28.184Z,1.30
2023-02-19T17:48:56.414Z,1.48
2023-02-19T17:51:25.075Z,1.50
2023-02-19T17:53:52.796Z,1.20
2023-02-19T17:56:21.761Z,2.40
2023-02-19T17:58:49.463Z,1.58
2023-02-19T18:01:18.377Z,1.42
2023-02-19T18:03:46.115Z,2.03
2023-02-19T18:06:14.152Z,2.10
2023-02-19T18:08:47.236Z,1.30
2023-02-19T18:11:15.043Z,1.85
2023-02-19T18:13:42.753Z,1.70
2023-02-19T18:16:10.860Z,1.60
2023-02-19T18:18:41.367Z,1.45
2023-02-19T18:21:10.141Z,1.60
2023-02-19T18:23:39.401Z,1.25
2023-02-19T18:26:08.644Z,1.40
2023-02-19T18:28:36.356Z,1.42
2023-02-19T18:31:04.425Z,1.20
2023-02-19T18:33:32.539Z,1.45
2023-02-19T18:36:01.895Z,1.38
2023-02-19T18:38:29.645Z,1.38
2023-02-19T18:40:58.779Z,1.33
2023-02-19T18:43:27.002Z,1.60
2023-02-19T18:45:54.787Z,1.40
2023-02-19T18:48:23.382Z,1.58
2023-02-19T18:50:51.027Z,1.50
2023-02-19T18:53:19.982Z,1.70
2023-02-19T18:55:48.440Z,1.92
2023-02-19T18:58:16.199Z,2.40
2023-02-19T19:00:44.148Z,2.08
2023-02-19T19:03:11.798Z,2.20
2023-02-19T19:05:39.917Z,1.58
2023-02-19T19:08:08.379Z,1.88
2023-02-19T19:10:38.198Z,1.70
2023-02-19T19:13:06.761Z,1.30
2023-02-19T19:15:34.752Z,1.30
2023-02-19T19:18:03.177Z,1.65
2023-02-19T19:20:31.025Z,1.38
2023-02-19T19:22:59.194Z,1.60
2023-02-19T19:25:26.957Z,1.37
2023-02-19T19:27:57.700Z,1.80
2023-02-19T19:30:25.622Z,1.30
2023-02-19T19:32:54.308Z,1.45
2023-02-19T19:35:23.502Z,1.92
2023-02-19T19:37:51.454Z,1.50
2023-02-19T19:40:19.358Z,1.60
2023-02-19T19:42:47.914Z,1.27
2023-02-19T19:45:17.050Z,1.50
2023-02-19T19:47:44.776Z,1.52
2023-02-19T19:50:15.195Z,1.50
2023-02-19T19:52:43.229Z,1.50
2023-02-19T19:55:10.958Z,1.38
2023-02-19T19:57:40.830Z,1.30
2023-02-19T20:00:09.163Z,1.50
2023-02-19T20:02:46.172Z,1.40
2023-02-19T20:05:32.536Z,1.45
2023-02-19T20:08:00.487Z,1.60
2023-02-19T20:10:28.108Z,1.60
2023-02-19T20:12:55.789Z,1.73
2023-02-19T20:15:24.126Z,1.73
2023-02-19T20:17:53.024Z,1.80
2023-02-19T20:20:22.598Z,1.70
2023-02-19T20:22:51.957Z,1.70
2023-02-19T20:25:19.840Z,1.80
2023-02-19T20:27:48.315Z,1.70
2023-02-19T20:30:16.644Z,2.00
2023-02-19T20:32:44.545Z,1.75
2023-02-19T20:35:13.957Z,2.08
2023-02-19T20:37:41.884Z,1.73
2023-02-19T20:42:55.636Z,1.83
2023-02-19T20:45:23.290Z,1.95
2023-02-19T20:47:50.991Z,2.08
2023-02-19T20:50:20.027Z,1.60
2023-02-19T20:52:47.977Z,1.67
2023-02-19T20:55:16.491Z,1.67
2023-02-19T20:57:45.022Z,1.97
2023-02-19T21:00:15.051Z,1.60
2023-02-19T21:02:42.882Z,1.87
2023-02-19T21:05:10.857Z,1.23
2023-02-19T21:07:39.959Z,1.50
2023-02-19T21:10:08.015Z,1.90
2023-02-19T21:12:36.417Z,1.70
2023-02-19T21:15:23.452Z,1.87
2023-02-19T21:17:51.987Z,1.60
2023-02-19T21:20:20.021Z,1.60
2023-02-19T21:22:49.625Z,1.77
2023-02-19T21:25:17.273Z,1.63
2023-02-19T21:27:45.829Z,1.37
2023-02-19T21:30:13.768Z,1.60
2023-02-19T21:32:41.521Z,1.60
2023-02-19T21:35:10.119Z,1.90
2023-02-19T21:37:38.692Z,1.48
2023-02-19T21:40:10.141Z,1.48
2023-02-19T21:42:37.889Z,1.50
2023-02-19T21:45:05.927Z,1.40
2023-02-19T21:47:34.016Z,1.67
2023-02-19T21:50:01.812Z,1.33
2023-02-19T21:52:30.995Z,1.38
2023-02-19T21:54:58.903Z,1.40
2023-02-19T21:57:27.986Z,1.60
2023-02-19T21:59:55.814Z,1.60
2023-02-19T22:02:24.483Z,1.30
2023-02-19T22:04:54.333Z,1.73
2023-02-19T22:07:22.631Z,1.53
2023-02-19T22:09:51.430Z,1.80
2023-02-19T22:12:19.105Z,1.40
2023-02-19T22:14:48.069Z,1.87
2023-02-19T22:17:15.744Z,1.37
2023-02-19T22:19:43.502Z,1.50
2023-02-19T22:22:11.470Z,1.47
2023-02-19T22:24:39.166Z,1.80
2023-02-19T22:27:06.996Z,1.73
2023-02-19T22:29:34.920Z,1.60
2023-02-19T22:32:04.119Z,1.73
2023-02-19T22:34:31.925Z,1.37
2023-02-19T22:37:00.415Z,1.60
2023-02-19T22:39:28.194Z,1.43
2023-02-19T22:41:55.855Z,1.30
2023-02-19T22:44:23.652Z,1.70
2023-02-19T22:46:53.255Z,1.80
2023-02-19T22:49:22.689Z,1.70
2023-02-19T22:51:51.091Z,1.57
2023-02-19T22:54:21.649Z,1.58
2023-02-19T22:56:49.305Z,1.60
2023-02-19T22:59:17.244Z,1.30
2023-02-19T23:01:44.925Z,1.30
2023-02-19T23:04:12.655Z,1.85
2023-02-19T23:06:42.895Z,1.87
2023-02-19T23:09:14.644Z,1.83
2023-02-19T23:11:42.361Z,1.45
2023-02-19T23:14:10.296Z,1.70
2023-02-19T23:16:38.268Z,1.90
2023-02-19T23:19:06.445Z,2.00
2023-02-19T23:21:35.172Z,1.90
2023-02-19T23:24:04.251Z,3.63
2023-02-19T23:26:32.083Z,5.00
2023-02-19T23:28:59.775Z,5.30
2023-02-19T23:31:27.992Z,3.67
2023-02-19T23:33:56.268Z,2.73
2023-02-19T23:36:24.019Z,2.40
2023-02-19T23:38:51.944Z,2.40
2023-02-19T23:41:21.284Z,1.90
2023-02-19T23:43:49.459Z,1.87
2023-02-19T23:46:17.951Z,1.87
2023-02-19T23:48:45.998Z,1.60
2023-02-19T23:51:14.486Z,2.13
2023-02-19T23:53:42.138Z,2.00
2023-02-19T23:56:10.198Z,2.30
2023-02-19T23:58:39.384Z,1.80
